VIV4309 MMTM-MMMY
Flight info
| Callsign | VIV4309 |
|---|---|
| Flight time | N/A |
| Altitude | 34000 |
| Route | TAM1A TAM UJ15 CVM UJ15E RETOS RETOS1A |
| Aircraft | A321/M-SDE3FGHIRWY/LB1 |
Departure
| Time | 2026-05-04 17:48 |
|---|---|
| Airport | General Francisco Javier Mina International Airport (MMTM) |
Arrival
| Time | N/A |
|---|---|
| Airport | Monterrey International Airport (MMMY) |
| Time | Latitude | Longitude | Altitude | Speed | Heading |
|---|---|---|---|---|---|
| 2026-05-04 17:21 | 22.28993 | -97.86948 | 80 ft | 0 kts | 236° |
| 2026-05-04 17:37 | 22.28994 | -97.86946 | 80 ft | 2 kts | 236° |
| 2026-05-04 17:37 | 22.29008 | -97.86923 | 80 ft | 4 kts | 236° |
| 2026-05-04 17:37 | 22.29021 | -97.86899 | 80 ft | 4 kts | 263° |
| 2026-05-04 17:37 | 22.29015 | -97.86875 | 81 ft | 4 kts | 315° |
| 2026-05-04 17:38 | 22.29008 | -97.86867 | 86 ft | 0 kts | 322° |
| 2026-05-04 17:41 | 22.29030 | -97.86886 | 82 ft | 13 kts | 322° |
| 2026-05-04 17:42 | 22.29141 | -97.86903 | 82 ft | 16 kts | 49° |
| 2026-05-04 17:42 | 22.29237 | -97.86885 | 84 ft | 14 kts | 353° |
| 2026-05-04 17:42 | 22.29324 | -97.86896 | 83 ft | 0 kts | 353° |
| 2026-05-04 17:44 | 22.29325 | -97.86896 | 83 ft | 2 kts | 353° |
| 2026-05-04 17:45 | 22.29409 | -97.86907 | 84 ft | 24 kts | 353° |
| 2026-05-04 17:45 | 22.29592 | -97.86958 | 82 ft | 27 kts | 328° |
| 2026-05-04 17:45 | 22.29746 | -97.87070 | 80 ft | 26 kts | 325° |
| 2026-05-04 17:45 | 22.29886 | -97.87177 | 84 ft | 25 kts | 325° |
| 2026-05-04 17:46 | 22.30047 | -97.87298 | 83 ft | 21 kts | 326° |
| 2026-05-04 17:46 | 22.30117 | -97.87379 | 86 ft | 14 kts | 298° |
| 2026-05-04 17:46 | 22.30171 | -97.87382 | 85 ft | 2 kts | 80° |
| 2026-05-04 17:46 | 22.30132 | -97.87358 | 86 ft | 15 kts | 148° |
| 2026-05-04 17:47 | 22.30110 | -97.87342 | 88 ft | 0 kts | 144° |
| 2026-05-04 17:47 | 22.29979 | -97.87245 | 82 ft | 57 kts | 146° |
| 2026-05-04 17:47 | 22.29416 | -97.86822 | 79 ft | 137 kts | 145° |
| 2026-05-04 17:48 | 22.28490 | -97.86131 | 401 ft | 171 kts | 146° |
| 2026-05-04 17:48 | 22.27578 | -97.85415 | 1197 ft | 154 kts | 143° |
| 2026-05-04 17:48 | 22.26761 | -97.84725 | 1844 ft | 146 kts | 142° |
| 2026-05-04 17:48 | 22.25938 | -97.83990 | 2085 ft | 168 kts | 141° |
| 2026-05-04 17:49 | 22.24956 | -97.83108 | 2092 ft | 200 kts | 140° |
| 2026-05-04 17:49 | 22.23775 | -97.82058 | 2077 ft | 238 kts | 141° |
| 2026-05-04 17:49 | 22.22453 | -97.80900 | 2086 ft | 248 kts | 141° |
| 2026-05-04 17:49 | 22.21303 | -97.79521 | 2087 ft | 250 kts | 120° |
| 2026-05-04 17:50 | 22.20816 | -97.77723 | 2085 ft | 254 kts | 93° |
| 2026-05-04 17:50 | 22.21159 | -97.75851 | 2084 ft | 259 kts | 66° |
| 2026-05-04 17:50 | 22.22289 | -97.74335 | 2082 ft | 265 kts | 38° |
| 2026-05-04 17:50 | 22.23990 | -97.73559 | 2081 ft | 271 kts | 8° |
| 2026-05-04 17:51 | 22.25856 | -97.73769 | 2083 ft | 274 kts | 338° |
| 2026-05-04 17:51 | 22.27412 | -97.74922 | 2089 ft | 274 kts | 313° |
| 2026-05-04 17:51 | 22.28763 | -97.76386 | 2089 ft | 275 kts | 314° |
| 2026-05-04 17:51 | 22.30147 | -97.77849 | 2583 ft | 280 kts | 315° |
| 2026-05-04 17:52 | 22.31555 | -97.79317 | 3455 ft | 282 kts | 314° |
| 2026-05-04 17:52 | 22.32980 | -97.80796 | 4263 ft | 285 kts | 314° |
| 2026-05-04 17:52 | 22.34416 | -97.82289 | 5055 ft | 287 kts | 314° |
| 2026-05-04 17:52 | 22.35845 | -97.83778 | 5925 ft | 283 kts | 313° |
| 2026-05-04 17:53 | 22.37242 | -97.85238 | 6794 ft | 278 kts | 313° |
| 2026-05-04 17:53 | 22.38626 | -97.86690 | 7491 ft | 277 kts | 314° |
| 2026-05-04 17:53 | 22.40012 | -97.88149 | 8125 ft | 278 kts | 314° |
| 2026-05-04 17:53 | 22.41382 | -97.89595 | 8737 ft | 280 kts | 314° |
| 2026-05-04 17:54 | 22.42325 | -97.90592 | 9133 ft | 282 kts | 314° |
| 2026-05-04 17:54 | 22.44192 | -97.92563 | 9910 ft | 285 kts | 314° |
| 2026-05-04 17:54 | 22.45635 | -97.94082 | 10202 ft | 298 kts | 315° |
| 2026-05-04 17:54 | 22.47160 | -97.95688 | 10321 ft | 316 kts | 315° |
| 2026-05-04 17:55 | 22.48777 | -97.97390 | 10456 ft | 331 kts | 315° |
| 2026-05-04 17:55 | 22.50451 | -97.99150 | 10820 ft | 338 kts | 315° |
| 2026-05-04 17:55 | 22.51592 | -98.00347 | 11157 ft | 340 kts | 315° |
| 2026-05-04 17:55 | 22.53299 | -98.02139 | 11668 ft | 344 kts | 315° |
| 2026-05-04 17:56 | 22.55018 | -98.03949 | 12224 ft | 347 kts | 315° |
| 2026-05-04 17:56 | 22.56753 | -98.05782 | 12769 ft | 350 kts | 315° |
| 2026-05-04 17:56 | 22.58500 | -98.07633 | 13294 ft | 352 kts | 314° |
| 2026-05-04 17:56 | 22.60230 | -98.09463 | 13831 ft | 354 kts | 315° |
| 2026-05-04 17:57 | 22.62025 | -98.11357 | 14297 ft | 357 kts | 315° |
| 2026-05-04 17:57 | 22.63895 | -98.13076 | 14764 ft | 360 kts | 323° |
| 2026-05-04 17:57 | 22.65940 | -98.14646 | 15277 ft | 361 kts | 324° |
| 2026-05-04 17:57 | 22.68016 | -98.16240 | 15806 ft | 362 kts | 324° |